createdAt,value
2022-12-08T00:01:22.638Z,101020.31
2022-12-08T00:03:50.442Z,101015.13
2022-12-08T00:06:41.754Z,101009.78
2022-12-08T00:09:27.304Z,101009.06
2022-12-08T00:12:02.827Z,100999.13
2022-12-08T00:14:32.392Z,101000.56
2022-12-08T00:17:00.249Z,100998.50
2022-12-08T00:19:28.057Z,101002.16
2022-12-08T00:21:55.525Z,100988.09
2022-12-08T00:24:24.273Z,100993.19
2022-12-08T00:26:51.174Z,100999.44
2022-12-08T00:29:18.733Z,100995.78
2022-12-08T00:31:45.772Z,100999.47
2022-12-08T00:34:14.159Z,101001.13
2022-12-08T00:36:41.579Z,100989.97
2022-12-08T00:39:08.619Z,100994.41
2022-12-08T00:41:54.414Z,101000.53
2022-12-08T00:44:21.315Z,101003.31
2022-12-08T00:46:48.859Z,100996.50
2022-12-08T00:49:18.789Z,100995.22
2022-12-08T00:51:45.705Z,100996.94
2022-12-08T00:54:13.029Z,101002.13
2022-12-08T00:56:39.941Z,100995.34
2022-12-08T00:59:07.661Z,100995.81
2022-12-08T01:01:38.088Z,100991.13
2022-12-08T01:04:06.719Z,101003.09
2022-12-08T01:06:35.437Z,101007.78
2022-12-08T01:09:03.724Z,101003.81
2022-12-08T01:11:30.524Z,100997.91
2022-12-08T01:13:57.351Z,100994.84
2022-12-08T01:16:30.535Z,100998.81
2022-12-08T01:18:58.710Z,101013.22
2022-12-08T01:21:26.001Z,101010.56
2022-12-08T01:23:54.024Z,101005.84
2022-12-08T01:26:21.137Z,101002.78
2022-12-08T01:28:48.383Z,101007.44
2022-12-08T01:31:18.560Z,101000.13
2022-12-08T01:33:45.985Z,101011.97
2022-12-08T01:36:20.733Z,101008.59
2022-12-08T01:38:47.523Z,100997.03
2022-12-08T01:41:19.528Z,100998.22
2022-12-08T01:44:23.649Z,101000.44
2022-12-08T01:46:53.250Z,100994.81
2022-12-08T01:49:33.764Z,100992.72
2022-12-08T01:52:09.107Z,100986.66
2022-12-08T01:55:05.237Z,100995.34
2022-12-08T01:57:40.474Z,100991.81
2022-12-08T02:00:13.904Z,100993.72
2022-12-08T02:02:57.285Z,100981.97
2022-12-08T02:05:28.234Z,100990.75
2022-12-08T02:07:57.357Z,100995.00
2022-12-08T02:10:28.236Z,100998.53
2022-12-08T02:12:58.062Z,100988.09
2022-12-08T02:15:42.956Z,100993.44
2022-12-08T02:18:47.872Z,100991.00
2022-12-08T02:21:37.020Z,100994.72
2022-12-08T02:24:44.825Z,100988.03
2022-12-08T02:27:11.614Z,100991.09
2022-12-08T02:30:08.897Z,100987.56
2022-12-08T02:32:57.300Z,100972.91
2022-12-08T02:35:37.790Z,100971.06
2022-12-08T02:38:04.786Z,100966.13
2022-12-08T02:40:39.804Z,100968.13
2022-12-08T02:43:17.772Z,100970.09
2022-12-08T02:45:58.065Z,100975.41
2022-12-08T02:48:28.421Z,100966.50
2022-12-08T02:50:55.532Z,100966.72
2022-12-08T02:53:22.212Z,100950.66
2022-12-08T02:56:03.581Z,100951.72
2022-12-08T02:58:54.353Z,100948.31
2022-12-08T03:01:35.828Z,100949.75
2022-12-08T03:04:22.822Z,100953.69
2022-12-08T03:07:04.929Z,100957.50
2022-12-08T03:09:56.664Z,100946.66
2022-12-08T03:12:30.575Z,100942.31
2022-12-08T03:15:03.944Z,100931.97
2022-12-08T03:17:32.235Z,100931.34
2022-12-08T03:20:03.946Z,100921.97
2022-12-08T03:22:32.386Z,100922.09
2022-12-08T03:24:59.093Z,100923.78
2022-12-08T03:27:29.528Z,100920.38
2022-12-08T03:29:58.340Z,100915.53
2022-12-08T03:32:47.972Z,100919.78
2022-12-08T03:35:19.356Z,100913.34
2022-12-08T03:37:46.189Z,100919.25
2022-12-08T03:40:17.625Z,100916.69
2022-12-08T03:42:44.442Z,100923.47
2022-12-08T03:45:11.427Z,100927.00
2022-12-08T03:47:38.180Z,100926.88
2022-12-08T03:50:06.000Z,100931.69
2022-12-08T03:52:33.098Z,100923.84
2022-12-08T03:54:59.743Z,100927.66
2022-12-08T03:57:26.553Z,100924.59
2022-12-08T03:59:53.278Z,100930.81
2022-12-08T04:02:21.772Z,100929.88
2022-12-08T04:04:50.867Z,100927.41
2022-12-08T04:07:17.656Z,100924.88
2022-12-08T04:09:45.508Z,100918.81
2022-12-08T04:12:12.281Z,100928.28
2022-12-08T04:14:39.007Z,100916.16
2022-12-08T04:17:05.840Z,100915.34
2022-12-08T04:19:32.631Z,100913.53
2022-12-08T04:21:59.422Z,100907.44
2022-12-08T04:24:26.205Z,100910.09
2022-12-08T04:26:52.983Z,100918.63
2022-12-08T04:29:22.384Z,100916.75
2022-12-08T04:31:49.185Z,100917.78
2022-12-08T04:34:16.012Z,100914.41
2022-12-08T04:36:42.726Z,100925.41
2022-12-08T04:39:09.446Z,100926.38
2022-12-08T04:41:36.276Z,100930.94
2022-12-08T04:44:02.999Z,100935.38
2022-12-08T04:46:29.882Z,100930.28
2022-12-08T04:48:56.686Z,100928.72
2022-12-08T04:51:23.833Z,100926.81
2022-12-08T04:53:50.586Z,100930.06
2022-12-08T04:56:19.136Z,100923.72
2022-12-08T04:58:46.208Z,100923.00
2022-12-08T05:01:13.586Z,100926.31
2022-12-08T05:03:40.334Z,100928.00
2022-12-08T05:06:07.419Z,100928.75
2022-12-08T05:08:34.362Z,100942.94
2022-12-08T05:11:09.940Z,100941.88
2022-12-08T05:13:36.762Z,100945.19
2022-12-08T05:16:17.308Z,100948.31
2022-12-08T05:18:44.457Z,100954.81
2022-12-08T05:21:11.184Z,100955.75
2022-12-08T05:23:37.972Z,100955.97
2022-12-08T05:26:04.839Z,100961.50
2022-12-08T05:28:46.876Z,100956.91
2022-12-08T05:31:15.460Z,100963.13
2022-12-08T05:33:42.751Z,100967.59
2022-12-08T05:36:10.084Z,100971.88
2022-12-08T05:38:36.860Z,100973.88
2022-12-08T05:41:04.444Z,100970.78
2022-12-08T05:43:31.175Z,100971.03
2022-12-08T05:45:58.184Z,100968.75
2022-12-08T05:48:24.950Z,100963.03
2022-12-08T05:50:52.102Z,100971.63
2022-12-08T05:53:20.435Z,100980.69
2022-12-08T05:55:47.852Z,100980.47
2022-12-08T05:58:17.530Z,100981.31
2022-12-08T06:00:45.316Z,100980.63
2022-12-08T06:03:13.080Z,100976.31
2022-12-08T06:05:41.196Z,100974.53
2022-12-08T06:08:08.212Z,100968.69
2022-12-08T06:10:35.105Z,100971.34
2022-12-08T06:13:01.878Z,100972.28
2022-12-08T06:15:28.567Z,100968.78
2022-12-08T06:17:55.386Z,100965.47
2022-12-08T06:20:22.148Z,100963.88
2022-12-08T06:22:48.997Z,100956.34
2022-12-08T06:25:15.757Z,100959.34
2022-12-08T06:27:42.495Z,100952.25
2022-12-08T06:30:09.511Z,100960.28
2022-12-08T06:32:36.844Z,100959.94
2022-12-08T06:35:03.895Z,100965.66
2022-12-08T06:37:30.652Z,100962.28
2022-12-08T06:39:57.483Z,100976.44
2022-12-08T06:42:43.123Z,100980.66
2022-12-08T06:45:11.705Z,100979.50
2022-12-08T06:47:38.648Z,100983.09
2022-12-08T06:50:06.420Z,100985.97
2022-12-08T06:52:34.909Z,100985.41
2022-12-08T06:55:03.503Z,100995.22
2022-12-08T06:57:31.468Z,100990.19
2022-12-08T06:59:58.254Z,100997.06
2022-12-08T07:02:25.018Z,100990.25
2022-12-08T07:04:51.980Z,100989.31
2022-12-08T07:07:18.769Z,100983.31
2022-12-08T07:09:48.268Z,100983.84
2022-12-08T07:12:15.015Z,100981.06
2022-12-08T07:14:41.934Z,100975.84
2022-12-08T07:17:08.733Z,100980.16
2022-12-08T07:19:35.510Z,100977.34
2022-12-08T07:22:02.234Z,100974.81
2022-12-08T07:24:29.069Z,100975.50
2022-12-08T07:26:55.829Z,100969.53
2022-12-08T07:29:26.235Z,100974.69
2022-12-08T07:31:53.339Z,100977.47
2022-12-08T07:34:20.090Z,100979.28
2022-12-08T07:36:46.960Z,100982.78
2022-12-08T07:39:13.820Z,100984.41
2022-12-08T07:41:40.653Z,100982.78
2022-12-08T07:44:07.418Z,100984.50
2022-12-08T07:46:34.328Z,100984.78
2022-12-08T07:49:01.333Z,100995.13
2022-12-08T07:51:28.315Z,100992.72
2022-12-08T07:53:55.428Z,100984.50
2022-12-08T07:56:22.945Z,100991.31
2022-12-08T07:58:50.044Z,101004.19
2022-12-08T08:01:22.662Z,101006.63
2022-12-08T08:03:50.333Z,101010.00
2022-12-08T08:06:17.163Z,101007.34
2022-12-08T08:08:44.280Z,101014.16
2022-12-08T08:11:18.992Z,101011.69
2022-12-08T08:13:48.200Z,101015.13
2022-12-08T08:16:15.068Z,101004.91
2022-12-08T08:18:42.274Z,101015.31
2022-12-08T08:21:43.329Z,101015.41
2022-12-08T08:23:56.615Z,101006.31
2022-12-08T08:26:23.398Z,101007.47
2022-12-08T08:28:50.309Z,101004.34
2022-12-08T08:31:17.133Z,101011.41
2022-12-08T08:33:43.961Z,101011.84
2022-12-08T08:36:11.574Z,101011.25
2022-12-08T08:38:42.859Z,101015.09
2022-12-08T08:41:11.074Z,101011.28
2022-12-08T08:43:38.899Z,101007.34
2022-12-08T08:46:07.014Z,101013.53
2022-12-08T08:48:34.005Z,101024.03
2022-12-08T08:51:09.086Z,101015.88
2022-12-08T08:53:36.378Z,101025.50
2022-12-08T08:56:05.227Z,101031.56
2022-12-08T08:58:32.816Z,101029.00
2022-12-08T09:00:59.721Z,101027.38
2022-12-08T09:03:26.781Z,101023.13
2022-12-08T09:05:56.228Z,101033.50
2022-12-08T09:08:23.718Z,101028.50
2022-12-08T09:10:50.619Z,101034.56
2022-12-08T09:13:17.503Z,101039.94
2022-12-08T09:15:44.376Z,101038.56
2022-12-08T09:18:11.131Z,101037.13
2022-12-08T09:20:39.887Z,101036.50
2022-12-08T09:23:06.895Z,101036.66
2022-12-08T09:25:33.846Z,101039.44
2022-12-08T09:28:00.554Z,101041.19
2022-12-08T09:30:28.152Z,101034.41
2022-12-08T09:32:55.003Z,101032.69
2022-12-08T09:35:21.832Z,101040.56
2022-12-08T09:37:48.563Z,101040.03
2022-12-08T09:40:18.865Z,101038.47
2022-12-08T09:43:12.376Z,101041.97
2022-12-08T09:45:39.701Z,101034.44
2022-12-08T09:48:18.788Z,101028.84
2022-12-08T09:50:55.240Z,101027.28
2022-12-08T09:53:45.422Z,101026.16
2022-12-08T09:56:14.808Z,101024.69
2022-12-08T09:59:02.112Z,101028.06
2022-12-08T10:01:31.480Z,101021.25
2022-12-08T10:03:58.933Z,101024.84
2022-12-08T10:06:55.664Z,101022.53
2022-12-08T10:09:28.087Z,101020.28
2022-12-08T10:12:08.149Z,101017.88
2022-12-08T10:14:47.228Z,101009.41
2022-12-08T10:17:20.951Z,101011.91
2022-12-08T10:19:49.961Z,101010.19
2022-12-08T10:22:25.590Z,101010.25
2022-12-08T10:25:01.377Z,101012.06
2022-12-08T10:27:28.293Z,101006.94
2022-12-08T10:29:55.246Z,101009.59
2022-12-08T10:32:24.405Z,101006.88
2022-12-08T10:35:12.104Z,101001.94
2022-12-08T10:37:39.755Z,100988.34
2022-12-08T10:40:13.434Z,100991.88
2022-12-08T10:42:50.930Z,100990.22
2022-12-08T10:45:26.792Z,100985.03
2022-12-08T10:47:58.303Z,100986.63
2022-12-08T10:50:55.920Z,100979.78
2022-12-08T10:53:28.495Z,100984.00
2022-12-08T10:56:04.123Z,100987.47
2022-12-08T10:58:34.181Z,100981.56
2022-12-08T11:01:06.904Z,100980.81
2022-12-08T11:03:47.733Z,100973.25
2022-12-08T11:06:30.728Z,100968.31
2022-12-08T11:09:00.308Z,100957.63
2022-12-08T11:11:54.438Z,100951.16
2022-12-08T11:14:24.290Z,100947.78
2022-12-08T11:16:54.961Z,100942.00
2022-12-08T11:19:22.116Z,100944.75
2022-12-08T11:21:48.958Z,100938.81
2022-12-08T11:24:15.697Z,100938.09
2022-12-08T11:26:51.536Z,100934.81
2022-12-08T11:29:18.817Z,100926.38
2022-12-08T11:31:53.531Z,100933.41
2022-12-08T11:34:29.629Z,100929.16
2022-12-08T11:36:57.459Z,100938.59
2022-12-08T11:39:29.392Z,100938.63
2022-12-08T11:41:58.381Z,100938.84
2022-12-08T11:44:38.317Z,100944.03
2022-12-08T11:47:20.597Z,100939.88
2022-12-08T11:49:49.156Z,100935.72
2022-12-08T11:52:26.566Z,100936.66
2022-12-08T11:55:26.784Z,100932.19
2022-12-08T11:57:56.529Z,100931.00
2022-12-08T12:00:23.502Z,100927.44
2022-12-08T12:02:59.754Z,100916.47
2022-12-08T12:06:08.808Z,100918.38
2022-12-08T12:08:37.548Z,100920.28
2022-12-08T12:11:35.985Z,100925.44
2022-12-08T12:14:15.770Z,100924.47
2022-12-08T12:17:02.242Z,100917.66
2022-12-08T12:19:36.534Z,100900.59
2022-12-08T12:22:17.854Z,100899.72
2022-12-08T12:24:49.585Z,100903.19
2022-12-08T12:27:32.502Z,100898.00
2022-12-08T12:30:02.914Z,100902.34
2022-12-08T12:32:43.403Z,100905.75
2022-12-08T12:35:35.811Z,100904.81
2022-12-08T12:38:35.400Z,100901.28
2022-12-08T12:41:04.914Z,100895.31
2022-12-08T12:43:53.404Z,100889.44
2022-12-08T12:46:22.960Z,100889.72
2022-12-08T12:48:51.115Z,100891.47
2022-12-08T12:51:36.053Z,100897.41
2022-12-08T12:54:29.507Z,100875.97
2022-12-08T12:57:05.574Z,100885.34
2022-12-08T12:59:42.696Z,100883.75
2022-12-08T13:02:19.331Z,100883.91
2022-12-08T13:04:54.095Z,100893.44
2022-12-08T13:07:25.733Z,100886.53
2022-12-08T13:10:24.448Z,100883.97
2022-12-08T13:13:16.580Z,100887.25
2022-12-08T13:15:56.485Z,100883.63
2022-12-08T13:18:28.968Z,100884.25
2022-12-08T13:21:03.432Z,100891.75
2022-12-08T13:23:48.778Z,100884.72
2022-12-08T13:26:19.685Z,100882.16
2022-12-08T13:29:01.630Z,100888.09
2022-12-08T13:31:37.528Z,100880.38
2022-12-08T13:34:07.943Z,100888.94
2022-12-08T13:36:38.911Z,100887.19
2022-12-08T13:39:07.635Z,100883.78
2022-12-08T13:41:44.386Z,100883.78
2022-12-08T13:45:18.746Z,100890.56
2022-12-08T13:47:34.883Z,100891.44
2022-12-08T13:58:44.109Z,100875.59
2022-12-08T14:01:16.755Z,100878.97
2022-12-08T14:04:20.372Z,100879.78
2022-12-08T14:06:39.073Z,100882.31
2022-12-08T14:09:11.432Z,100877.97
2022-12-08T14:11:42.363Z,100884.78
2022-12-08T14:14:27.261Z,100875.41
2022-12-08T14:17:06.057Z,100875.31
2022-12-08T14:19:35.245Z,100871.84
2022-12-08T14:22:14.061Z,100887.28
2022-12-08T14:24:45.264Z,100881.28
2022-12-08T14:27:16.573Z,100889.84
2022-12-08T14:29:56.365Z,100880.38
2022-12-08T14:32:24.880Z,100884.59
2022-12-08T14:35:32.103Z,100878.56
2022-12-08T14:38:01.563Z,100877.63
2022-12-08T14:40:48.722Z,100876.75
2022-12-08T14:43:20.876Z,100883.50
2022-12-08T14:45:50.831Z,100883.44
2022-12-08T14:48:23.490Z,100891.16
2022-12-08T14:51:15.060Z,100889.41
2022-12-08T14:53:58.802Z,100891.06
2022-12-08T14:56:36.434Z,100883.34
2022-12-08T14:59:23.085Z,100882.44
2022-12-08T15:01:53.370Z,100884.16
2022-12-08T15:04:28.807Z,100888.38
2022-12-08T15:07:04.810Z,100879.72
2022-12-08T15:09:36.419Z,100877.13
2022-12-08T15:12:12.202Z,100880.47
2022-12-08T15:15:14.580Z,100874.34
2022-12-08T15:17:57.559Z,100890.56
2022-12-08T15:20:39.413Z,100881.19
2022-12-08T15:23:17.637Z,100887.22
2022-12-08T15:25:44.592Z,100880.38
2022-12-08T15:28:17.018Z,100882.13
2022-12-08T15:30:44.016Z,100872.69
2022-12-08T15:33:10.747Z,100869.31
2022-12-08T15:35:40.925Z,100869.34
2022-12-08T15:38:30.838Z,100869.38
2022-12-08T15:41:01.014Z,100859.97
2022-12-08T15:43:28.240Z,100865.88
2022-12-08T15:45:59.669Z,100862.41
2022-12-08T15:48:29.393Z,100859.00
2022-12-08T15:50:57.012Z,100855.53
2022-12-08T15:53:26.485Z,100862.38
2022-12-08T15:56:25.896Z,100858.94
2022-12-08T15:58:56.919Z,100864.94
2022-12-08T16:01:24.860Z,100867.44
2022-12-08T16:09:33.337Z,100858.09
2022-12-08T16:12:18.991Z,100861.56
2022-12-08T16:17:34.023Z,100864.13
2022-12-08T16:20:01.750Z,100867.50
2022-12-08T16:25:21.385Z,100870.88
2022-12-08T16:28:12.468Z,100866.56
2022-12-08T16:30:41.261Z,100865.63
2022-12-08T16:33:08.143Z,100860.44
2022-12-08T16:35:35.037Z,100869.03
2022-12-08T16:38:01.930Z,100862.16
2022-12-08T16:40:28.879Z,100861.25
2022-12-08T16:42:55.833Z,100860.38
2022-12-08T16:45:24.502Z,100866.38
2022-12-08T16:47:52.612Z,100868.97
2022-12-08T16:50:26.955Z,100863.84
2022-12-08T16:53:08.004Z,100854.44
2022-12-08T16:55:35.406Z,100850.06
2022-12-08T16:58:02.834Z,100850.06
2022-12-08T17:00:30.893Z,100837.25
2022-12-08T17:02:59.082Z,100840.66
2022-12-08T17:05:26.814Z,100844.03
2022-12-08T17:07:54.818Z,100843.13
2022-12-08T17:10:27.845Z,100848.03
2022-12-08T17:12:55.268Z,100839.44
2022-12-08T17:15:25.651Z,100845.31
2022-12-08T17:17:54.019Z,100838.56
2022-12-08T17:20:25.090Z,100837.66
2022-12-08T17:22:56.714Z,100844.47
2022-12-08T17:25:24.219Z,100847.09
2022-12-08T17:27:51.290Z,100844.34
2022-12-08T17:30:19.079Z,100842.69
2022-12-08T17:32:46.295Z,100843.50
2022-12-08T17:35:14.464Z,100847.66
2022-12-08T17:37:43.371Z,100849.44
2022-12-08T17:40:12.560Z,100849.41
2022-12-08T17:42:39.483Z,100851.84
2022-12-08T17:45:08.129Z,100854.44
2022-12-08T17:47:35.696Z,100836.50
2022-12-08T17:50:03.060Z,100837.28
2022-12-08T17:52:30.399Z,100838.97
2022-12-08T17:54:57.796Z,100851.78
2022-12-08T17:57:25.337Z,100846.72
2022-12-08T17:59:52.607Z,100846.78
2022-12-08T18:02:19.784Z,100843.41
2022-12-08T18:04:46.602Z,100840.81
2022-12-08T18:07:13.654Z,100836.59
2022-12-08T18:09:40.742Z,100832.38
2022-12-08T18:12:07.880Z,100838.47
2022-12-08T18:14:34.625Z,100835.88
2022-12-08T18:17:01.692Z,100843.56
2022-12-08T18:19:28.929Z,100846.16
2022-12-08T18:21:56.091Z,100841.84
2022-12-08T18:24:23.946Z,100843.56
2022-12-08T18:26:55.466Z,100842.66
2022-12-08T18:29:22.931Z,100842.63
2022-12-08T18:31:50.324Z,100841.78
2022-12-08T18:34:19.147Z,100852.09
2022-12-08T18:36:46.677Z,100856.34
2022-12-08T18:39:23.476Z,100845.19
2022-12-08T18:41:52.336Z,100846.06
2022-12-08T18:44:19.762Z,100845.19
2022-12-08T18:46:47.235Z,100840.03
2022-12-08T18:49:16.523Z,100840.03
2022-12-08T18:51:44.259Z,100836.53
2022-12-08T18:54:12.418Z,100827.81
2022-12-08T18:56:39.905Z,100831.97
2022-12-08T18:59:11.594Z,100824.22
2022-12-08T19:01:40.133Z,100821.47
2022-12-08T19:06:56.975Z,100804.81
2022-12-08T19:09:26.912Z,100828.75
2022-12-08T19:11:55.066Z,100829.59
2022-12-08T19:14:27.860Z,100818.69
2022-12-08T19:16:58.453Z,100827.34
2022-12-08T19:19:26.580Z,100821.41
2022-12-08T19:21:54.092Z,100819.72
2022-12-08T19:24:21.134Z,100821.50
2022-12-08T19:26:47.952Z,100824.09
2022-12-08T19:29:15.126Z,100824.16
2022-12-08T19:31:42.158Z,100820.69
2022-12-08T19:34:11.996Z,100823.25
2022-12-08T19:36:42.695Z,100826.59
2022-12-08T19:39:38.899Z,100824.97
2022-12-08T19:42:37.470Z,100823.28
2022-12-08T19:45:12.024Z,100821.47
2022-12-08T19:47:42.821Z,100813.66
2022-12-08T19:50:29.457Z,100817.88
2022-12-08T19:52:56.731Z,100810.75
2022-12-08T19:55:24.120Z,100811.47
2022-12-08T19:57:52.121Z,100811.53
2022-12-08T20:00:20.572Z,100811.53
2022-12-08T20:02:48.557Z,100805.63
2022-12-08T20:05:15.921Z,100796.34
2022-12-08T20:07:44.270Z,100798.19
2022-12-08T20:10:23.191Z,100793.94
2022-12-08T20:12:50.227Z,100794.81
2022-12-08T20:15:17.843Z,100795.69
2022-12-08T20:17:45.135Z,100799.22
2022-12-08T20:20:14.124Z,100802.75
2022-12-08T20:22:41.910Z,100798.53
2022-12-08T20:25:12.946Z,100792.50
2022-12-08T20:27:41.498Z,100787.22
2022-12-08T20:30:16.470Z,100793.22
2022-12-08T20:32:44.920Z,100788.06
2022-12-08T20:35:11.996Z,100790.66
2022-12-08T20:37:39.134Z,100796.66
2022-12-08T20:40:06.694Z,100783.63
2022-12-08T20:42:33.881Z,100774.44
2022-12-08T20:45:01.733Z,100771.84
2022-12-08T20:47:28.835Z,100769.41
2022-12-08T20:49:55.995Z,100766.97
2022-12-08T20:52:23.019Z,100763.66
2022-12-08T20:54:49.935Z,100771.47
2022-12-08T20:57:17.008Z,100777.63
2022-12-08T20:59:44.398Z,100771.59
2022-12-08T21:02:11.725Z,100776.72
2022-12-08T21:04:38.894Z,100765.66
2022-12-08T21:07:06.128Z,100762.31
2022-12-08T21:09:33.441Z,100770.63
2022-12-08T21:12:00.496Z,100768.75
2022-12-08T21:14:31.157Z,100761.13
2022-12-08T21:16:58.497Z,100762.09
2022-12-08T21:19:25.483Z,100758.84
2022-12-08T21:21:52.536Z,100752.75
2022-12-08T21:24:19.714Z,100758.72
2022-12-08T21:26:46.823Z,100752.69
2022-12-08T21:29:13.742Z,100745.84
2022-12-08T21:31:41.273Z,100755.13
2022-12-08T21:34:08.357Z,100759.16
2022-12-08T21:36:35.784Z,100760.19
2022-12-08T21:39:03.127Z,100751.66
2022-12-08T21:41:49.328Z,100754.28
2022-12-08T21:44:20.272Z,100761.22
2022-12-08T21:46:47.907Z,100776.66
2022-12-08T21:49:15.711Z,100763.91
2022-12-08T21:51:42.901Z,100760.50
2022-12-08T21:54:16.711Z,100765.63
2022-12-08T21:56:47.657Z,100760.44
2022-12-08T21:59:15.408Z,100751.72
2022-12-08T22:01:45.307Z,100759.22
2022-12-08T22:04:16.032Z,100744.72
2022-12-08T22:06:43.177Z,100748.84
2022-12-08T22:09:11.904Z,100748.00
2022-12-08T22:11:38.944Z,100751.53
2022-12-08T22:14:09.584Z,100732.81
2022-12-08T22:16:41.030Z,100737.81
2022-12-08T22:19:08.115Z,100736.94
2022-12-08T22:21:34.946Z,100739.47
2022-12-08T22:24:01.781Z,100748.06
2022-12-08T22:26:28.667Z,100753.22
2022-12-08T22:28:55.439Z,100745.63
2022-12-08T22:31:22.875Z,100746.63
2022-12-08T22:33:51.092Z,100747.50
2022-12-08T22:36:22.382Z,100739.88
2022-12-08T22:38:50.494Z,100742.28
2022-12-08T22:41:18.165Z,100741.22
2022-12-08T22:43:45.761Z,100726.78
2022-12-08T22:46:21.590Z,100721.72
2022-12-08T22:48:49.097Z,100720.94
2022-12-08T22:51:16.985Z,100715.81
2022-12-08T22:53:44.556Z,100703.91
2022-12-08T22:56:13.505Z,100703.06
2022-12-08T22:58:43.043Z,100695.38
2022-12-08T23:01:22.591Z,100692.03
2022-12-08T23:03:49.732Z,100695.44
2022-12-08T23:06:17.253Z,100702.50
2022-12-08T23:08:45.267Z,100713.78
2022-12-08T23:11:12.493Z,100711.88
2022-12-08T23:13:42.382Z,100703.13
2022-12-08T23:16:10.943Z,100694.63
2022-12-08T23:18:41.173Z,100694.47
2022-12-08T23:21:11.166Z,100704.59
2022-12-08T23:23:38.572Z,100701.13
2022-12-08T23:26:13.959Z,100702.84
2022-12-08T23:28:40.751Z,100680.47
2022-12-08T23:31:08.524Z,100675.22
2022-12-08T23:33:35.608Z,100666.69
2022-12-08T23:36:02.581Z,100670.91
2022-12-08T23:38:29.542Z,100685.63
2022-12-08T23:41:04.326Z,100669.41
2022-12-08T23:43:31.432Z,100669.34
2022-12-08T23:45:58.934Z,100662.66
2022-12-08T23:48:28.239Z,100655.94
2022-12-08T23:50:56.243Z,100656.75
2022-12-08T23:53:23.964Z,100646.56
2022-12-08T23:55:50.807Z,100651.84
2022-12-08T23:58:17.799Z,100644.06
